Main page
METAR-TAF:

METAR-TAF

Airports :

Gökçeada, Turkey

Gökçeada Airport

latitude: 40-12-04N, longitude: 25-52-56E, elevation: 22 m

Current weather observation

The report was made 1 hour and 2 minutes ago, at 08:50 UTC
Wind 12 kt from the North
Temperature 18°C
Humidity 64%
Pressure 1022 hPa
Visibility 10 km or more
no clouds below 1500 m and no cumulonimbus

METAR: LTFK 190850Z 35012KT CAVOK 18/11 Q1022

Time: 12:52 (09:52 UTC)

Forecast

The report was made 2 hours and 12 minutes ago, at 07:40 UTC
Forecast valid from 19 at 09 UTC to 19 at 18 UTC
Wind 12 kt from the North
Visibility 10 km or more
no clouds below 1500 m and no cumulonimbus

TAF: LTFK 190740Z 1909/1918 36012KT CAVOK

Weather observations and forecasts of more than 4000 airports (METAR and TAF reports).

The available stations are represented by yellow and red dots on the map.

Hover mouse over dot to see the name of the station.

Then click to see weather observations and forecasts.

To change the map : click on the green buttons with a black cross to zoom in, on the green button with a dash to zoom out, or on the green arrows for adjacent maps.


METAR-TAF: